Time;durP1;ratioP1;P1;durP2;ratioP2;P2;SDS_P1;SDS_P2;PMS_P1;PMS_P2;Temp;Humidity;BMP_temperature;BMP_pressure;BME280_temperature;BME280_humidity;BME280_pressure;Samples;Min_cycle;Max_cycle;Signal;HPM_P1;HPM_P2
2022/05/09 00:00:19;;;;;;;3.35;0.63;;;15.00;53.60;;;;;;5112573;28;20039;-63
2022/05/09 00:02:45;;;;;;;3.72;0.70;;;15.00;53.60;;;;;;5112529;28;20521;-64
2022/05/09 00:05:15;;;;;;;4.05;0.93;;;15.00;53.60;;;;;;5111519;28;20043;-62
2022/05/09 00:07:41;;;;;;;2.50;0.63;;;15.00;53.60;;;;;;5112452;28;20153;-71
2022/05/09 00:10:12;;;;;;;2.75;0.40;;;15.10;53.50;;;;;;5112556;28;20100;-73
2022/05/09 00:12:38;;;;;;;3.30;0.45;;;15.30;53.30;;;;;;5111307;28;20039;-71
2022/05/09 00:15:05;;;;;;;3.35;0.40;;;15.50;52.80;;;;;;5112595;28;20035;-64
2022/05/09 00:17:31;;;;;;;3.85;0.65;;;15.80;52.30;;;;;;5112467;28;20042;-71
2022/05/09 00:19:56;;;;;;;2.78;0.43;;;16.20;51.80;;;;;;5111092;28;20403;-72
2022/05/09 00:22:22;;;;;;;1.48;0.40;;;16.50;51.20;;;;;;5112444;28;20028;-72
2022/05/09 00:24:48;;;;;;;1.95;0.63;;;16.90;50.50;;;;;;5111032;28;20055;-71
2022/05/09 00:27:13;;;;;;;2.05;0.40;;;17.20;49.90;;;;;;5110815;28;20134;-71
2022/05/09 00:29:39;;;;;;;1.48;0.30;;;17.50;49.30;;;;;;5112375;28;20494;-71
2022/05/09 00:32:05;;;;;;;1.33;0.30;;;17.70;48.80;;;;;;5112449;28;20039;-72
2022/05/09 00:34:31;;;;;;;1.50;0.30;;;18.00;48.30;;;;;;5111222;28;20075;-69
2022/05/09 00:36:57;;;;;;;1.55;0.40;;;18.20;47.90;;;;;;5110919;28;20526;-71
2022/05/09 00:39:23;;;;;;;1.70;0.30;;;18.40;47.50;;;;;;5112194;28;20039;-64
2022/05/09 00:41:49;;;;;;;1.95;0.40;;;18.60;47.10;;;;;;5111193;28;20382;-72
2022/05/09 00:44:19;;;;;;;1.95;0.40;;;18.70;46.70;;;;;;5112296;28;20032;-71
2022/05/09 00:46:49;;;;;;;2.23;0.37;;;18.90;46.40;;;;;;5110915;28;20036;-71
2022/05/09 00:49:19;;;;;;;;;;;19.00;46.10;;;;;;5111212;28;20841;-65
2022/05/09 00:52:08;;;;;;;1.95;0.30;;;19.20;46.20;;;;;;5128073;28;20286;-64
2022/05/09 00:54:40;;;;;;;1.33;0.50;;;19.30;45.70;;;;;;5110688;28;20491;-71
2022/05/09 00:57:14;;;;;;;2.88;0.32;;;19.40;45.30;;;;;;5110727;28;20039;-63
2022/05/09 00:59:41;;;;;;;3.33;0.60;;;19.50;45.00;;;;;;5110654;28;20518;-67
2022/05/09 01:02:07;;;;;;;2.88;0.40;;;19.60;44.90;;;;;;5110727;28;20043;-71
2022/05/09 01:04:42;;;;;;;1.92;0.38;;;19.70;44.60;;;;;;5110708;28;20071;-71
2022/05/09 01:07:08;;;;;;;2.53;0.65;;;19.80;44.30;;;;;;5111816;28;20036;-71
2022/05/09 01:09:34;;;;;;;2.28;0.63;;;19.90;44.20;;;;;;5112062;28;20040;-71
2022/05/09 01:12:00;;;;;;;2.28;0.38;;;20.10;44.10;;;;;;5111351;28;20035;-72
2022/05/09 01:14:29;;;;;;;2.55;0.30;;;20.20;43.80;;;;;;5115841;28;20043;-70
2022/05/09 01:16:57;;;;;;;3.05;0.30;;;20.30;43.40;;;;;;5114748;28;20387;-71
2022/05/09 01:22:29;;;;;;;1.63;0.40;;;20.40;43.20;;;;;;5109880;27;20104;-72
2022/05/09 01:25:02;;;;;;;2.47;0.43;;;20.70;42.80;;;;;;5108474;28;20135;-71
2022/05/09 01:27:27;;;;;;;3.45;0.70;;;20.80;42.50;;;;;;5108760;28;20044;-70
2022/05/09 01:30:03;;;;;;;1.77;0.40;;;20.80;42.30;;;;;;5109586;28;20093;-71
2022/05/09 01:41:06;;;;;;;3.30;0.40;;;20.90;42.10;;;;;;5130203;27;20430;-71
2022/05/09 01:46:18;;;;;;;2.28;0.30;;;21.00;41.60;;;;;;5089322;28;20367;-72
2022/05/09 01:51:31;;;;;;;2.08;0.40;;;21.00;41.70;;;;;;5088259;28;20044;-72
2022/05/09 01:53:57;;;;;;;2.10;0.40;;;20.90;41.60;;;;;;5088342;28;20442;-68
2022/05/09 01:56:30;;;;;;;2.92;0.40;;;20.90;41.70;;;;;;5088000;28;20044;-66
2022/05/09 01:58:56;;;;;;;0.90;0.30;;;20.80;41.60;;;;;;5088241;28;20032;-71
2022/05/09 02:01:23;;;;;;;1.95;0.30;;;20.80;41.70;;;;;;5089200;28;20453;-71
2022/05/09 02:03:50;;;;;;;4.10;0.50;;;20.80;41.70;;;;;;5089004;28;20076;-72
2022/05/09 02:06:17;;;;;;;3.88;0.47;;;20.80;41.70;;;;;;5089007;28;20119;-71
2022/05/09 02:08:44;;;;;;;3.15;0.45;;;20.80;41.70;;;;;;5089247;28;20039;-72
2022/05/09 02:11:10;;;;;;;1.00;0.30;;;20.80;41.70;;;;;;5088088;28;20036;-72
2022/05/09 02:13:36;;;;;;;1.27;0.30;;;20.70;41.70;;;;;;5104696;28;20123;-72
2022/05/09 02:16:02;;;;;;;2.05;0.40;;;20.70;41.70;;;;;;5088977;28;20434;-72
2022/05/09 02:18:28;;;;;;;2.38;0.40;;;20.70;41.80;;;;;;5088733;28;20040;-71
2022/05/09 02:20:54;;;;;;;3.45;0.55;;;20.60;41.70;;;;;;5087570;28;20504;-63
2022/05/09 02:23:20;;;;;;;1.58;0.30;;;20.60;41.70;;;;;;5088832;28;20068;-72
2022/05/09 02:25:45;;;;;;;2.63;0.30;;;20.60;41.80;;;;;;5087460;28;20377;-71
2022/05/09 02:28:13;;;;;;;3.25;0.60;;;20.60;41.70;;;;;;5088621;28;20483;-64
2022/05/09 02:30:40;;;;;;;1.77;0.30;;;20.60;41.80;;;;;;5087357;28;20059;-64
2022/05/09 02:33:07;;;;;;;1.98;0.40;;;20.70;41.70;;;;;;5087188;28;20055;-71
2022/05/09 02:35:34;;;;;;;3.45;0.30;;;20.70;41.60;;;;;;5087500;28;20048;-71
2022/05/09 02:38:00;;;;;;;4.10;0.40;;;20.80;41.60;;;;;;5087130;28;20484;-64
2022/05/09 02:40:26;;;;;;;3.25;0.57;;;20.80;41.40;;;;;;5087176;28;20040;-72
2022/05/09 02:42:54;;;;;;;1.55;0.30;;;20.90;41.40;;;;;;5087121;28;20040;-72
2022/05/09 02:45:20;;;;;;;1.98;0.40;;;20.90;41.30;;;;;;5088386;28;20056;-71
2022/05/09 02:47:46;;;;;;;1.80;0.60;;;20.90;41.20;;;;;;5088160;28;20055;-72
2022/05/09 02:50:14;;;;;;;1.88;0.40;;;20.90;41.10;;;;;;5088403;28;20029;-71
2022/05/09 02:52:40;;;;;;;2.38;0.40;;;21.00;41.10;;;;;;5087097;28;20040;-71
2022/05/09 02:55:07;;;;;;;3.88;0.50;;;21.00;41.10;;;;;;5086919;28;20048;-71
2022/05/09 02:57:34;;;;;;;2.17;0.68;;;20.90;41.00;;;;;;5073406;28;20511;-72
2022/05/09 03:00:07;;;;;;;3.15;0.50;;;20.90;41.00;;;;;;5074647;28;20128;-71
2022/05/09 03:02:33;;;;;;;2.70;0.30;;;20.80;40.90;;;;;;5074749;28;20076;-71
2022/05/09 03:04:58;;;;;;;2.47;0.50;;;20.80;41.10;;;;;;5073190;28;20076;-71
2022/05/09 03:07:27;;;;;;;1.85;0.38;;;20.70;41.10;;;;;;5074652;28;20119;-71
2022/05/09 03:09:53;;;;;;;1.50;0.20;;;20.60;41.10;;;;;;5074756;28;20045;-71
2022/05/09 03:12:19;;;;;;;1.27;0.30;;;20.60;41.20;;;;;;5089912;28;20062;-71
2022/05/09 03:14:47;;;;;;;2.30;0.30;;;20.50;41.20;;;;;;5090298;28;20048;-71
2022/05/09 03:17:13;;;;;;;1.20;0.20;;;20.50;41.30;;;;;;5072939;28;20049;-71
2022/05/09 03:19:41;;;;;;;1.70;0.40;;;20.50;41.40;;;;;;5074216;28;20044;-71
2022/05/09 03:22:07;;;;;;;2.88;0.40;;;20.50;41.40;;;;;;5072972;28;20086;-70
2022/05/09 03:24:34;;;;;;;1.13;0.25;;;20.50;41.40;;;;;;5072760;28;20041;-64
2022/05/09 03:27:02;;;;;;;1.95;0.38;;;20.50;41.50;;;;;;5072831;28;20514;-71
2022/05/09 03:29:28;;;;;;;1.90;0.38;;;20.50;42.20;;;;;;5074383;28;20065;-72
2022/05/09 03:31:54;;;;;;;2.75;0.32;;;20.50;41.30;;;;;;5073027;28;20049;-65
2022/05/09 03:34:20;;;;;;;0.85;0.20;;;20.50;41.30;;;;;;5072527;28;20416;-63
2022/05/09 03:36:46;;;;;;;1.55;0.47;;;20.60;41.30;;;;;;5072888;28;20044;-70
2022/05/09 03:39:12;;;;;;;1.15;0.30;;;20.60;41.20;;;;;;5072784;28;20373;-65
2022/05/09 03:41:38;;;;;;;2.78;0.40;;;20.60;41.00;;;;;;5072774;28;20037;-63
2022/05/09 03:44:05;;;;;;;1.08;0.20;;;20.70;41.00;;;;;;5073346;28;20078;-70
2022/05/09 03:46:31;;;;;;;1.20;0.30;;;20.70;40.90;;;;;;5072420;28;20044;-63
2022/05/09 03:48:56;;;;;;;1.30;0.32;;;20.70;40.90;;;;;;5073578;28;20040;-71
2022/05/09 03:51:22;;;;;;;0.70;0.20;;;20.70;40.80;;;;;;5072315;28;20040;-71
2022/05/09 03:53:48;;;;;;;2.13;0.30;;;20.70;40.90;;;;;;5072569;28;20119;-67
2022/05/09 03:56:14;;;;;;;3.25;0.52;;;20.70;40.80;;;;;;5089367;28;20040;-66
2022/05/09 03:58:40;;;;;;;1.45;0.50;;;20.60;40.80;;;;;;5072230;28;20452;-63
2022/05/09 04:01:07;;;;;;;1.30;0.30;;;20.60;40.80;;;;;;5073353;28;20033;-66
2022/05/09 04:03:33;;;;;;;1.08;0.30;;;20.60;40.90;;;;;;5072288;28;20037;-71
2022/05/09 04:05:59;;;;;;;1.30;0.20;;;20.60;40.90;;;;;;5071911;28;20483;-71
2022/05/09 04:08:25;;;;;;;2.60;0.55;;;20.50;41.60;;;;;;5072325;28;20438;-71
2022/05/09 04:10:54;;;;;;;1.73;0.30;;;20.50;40.90;;;;;;5072136;28;20045;-71
2022/05/09 04:13:21;;;;;;;1.90;0.30;;;20.50;40.90;;;;;;5071926;28;20037;-63
2022/05/09 04:18:41;;;;;;;1.35;0.40;;;20.40;40.90;;;;;;5071592;28;20056;-71
2022/05/09 04:21:11;;;;;;;1.73;0.30;;;20.40;41.00;;;;;;5073537;28;20040;-63
2022/05/09 04:23:38;;;;;;;1.52;0.30;;;20.40;41.00;;;;;;5072985;28;20041;-71
2022/05/09 04:26:05;;;;;;;2.60;0.75;;;20.30;41.00;;;;;;5071590;28;20040;-71
2022/05/09 04:28:31;;;;;;;2.97;0.45;;;20.30;41.00;;;;;;5071607;28;20048;-63
2022/05/09 04:30:59;;;;;;;1.35;0.35;;;20.30;41.00;;;;;;5073532;28;20127;-62
2022/05/09 04:33:25;;;;;;;1.33;0.20;;;20.30;41.00;;;;;;5071855;28;20128;-72
2022/05/09 04:35:51;;;;;;;0.70;0.22;;;20.30;41.00;;;;;;5072844;28;20043;-71
2022/05/09 04:38:22;;;;;;;2.05;0.20;;;20.30;41.00;;;;;;5071717;28;20416;-71
2022/05/09 04:40:51;;;;;;;1.17;0.30;;;20.30;41.10;;;;;;5072606;28;20052;-72
2022/05/09 04:43:19;;;;;;;2.17;0.40;;;20.30;41.00;;;;;;5072611;28;20040;-71
2022/05/09 04:45:45;;;;;;;1.92;0.30;;;20.30;41.10;;;;;;5070936;28;20121;-68
2022/05/09 04:48:11;;;;;;;1.67;0.20;;;20.30;41.10;;;;;;5072586;28;20123;-72
2022/05/09 04:50:36;;;;;;;0.90;0.20;;;20.30;41.10;;;;;;5071235;28;20041;-63
2022/05/09 04:53:03;;;;;;;2.05;0.40;;;20.30;41.00;;;;;;5072480;28;20043;-66
2022/05/09 04:55:28;;;;;;;1.83;0.28;;;20.30;41.00;;;;;;5071116;28;20138;-71
2022/05/09 04:57:55;;;;;;;1.20;0.30;;;20.30;41.00;;;;;;5071045;28;20072;-65
2022/05/09 05:00:26;;;;;;;1.55;0.25;;;20.30;41.00;;;;;;5070989;28;20044;-70
2022/05/09 05:02:52;;;;;;;0.73;0.20;;;20.40;41.00;;;;;;5071196;28;20025;-71
2022/05/09 05:05:19;;;;;;;2.92;0.35;;;20.40;41.10;;;;;;5071016;28;20079;-64
2022/05/09 05:07:44;;;;;;;2.60;0.52;;;20.40;41.00;;;;;;5072299;28;20036;-71
2022/05/09 05:10:12;;;;;;;1.45;0.40;;;20.40;41.00;;;;;;5087899;28;20044;-72
2022/05/09 05:12:38;;;;;;;3.05;0.55;;;20.40;41.00;;;;;;5070290;28;20499;-70
2022/05/09 05:15:05;;;;;;;2.13;0.30;;;20.40;41.00;;;;;;5071398;28;20054;-70
2022/05/09 05:17:30;;;;;;;2.35;0.60;;;20.40;41.20;;;;;;5087169;28;20044;-70
2022/05/09 05:19:56;;;;;;;2.00;0.50;;;20.40;41.90;;;;;;5070362;28;20102;-67
2022/05/09 05:22:22;;;;;;;5.15;0.50;;;20.30;42.10;;;;;;5070068;28;20040;-70
2022/05/09 05:24:53;;;;;;;4.22;0.80;;;20.30;42.20;;;;;;5070104;28;20051;-70
2022/05/09 05:27:21;;;;;;;2.15;0.50;;;20.30;42.50;;;;;;5069529;28;20036;-70
2022/05/09 05:29:49;;;;;;;3.50;0.68;;;20.30;42.80;;;;;;5070859;28;20467;-68
2022/05/09 05:32:19;;;;;;;3.15;0.50;;;20.20;42.80;;;;;;5071824;28;20056;-70
2022/05/09 05:34:45;;;;;;;5.43;0.80;;;20.30;43.00;;;;;;5070876;28;20044;-71
2022/05/09 05:37:11;;;;;;;3.15;0.63;;;20.30;43.10;;;;;;5072071;28;20460;-72
2022/05/09 05:39:37;;;;;;;7.35;0.70;;;20.20;43.20;;;;;;5070287;28;20040;-69
2022/05/09 05:42:05;;;;;;;3.53;0.73;;;20.20;43.30;;;;;;5070928;28;20145;-69
2022/05/09 05:44:31;;;;;;;1.30;0.50;;;20.20;43.40;;;;;;5070365;28;20056;-65
2022/05/09 05:46:56;;;;;;;2.00;0.47;;;20.20;43.50;;;;;;5067207;28;20495;-69
2022/05/09 05:49:22;;;;;;;3.75;0.80;;;20.10;43.60;;;;;;5069886;28;20043;-68
2022/05/09 05:51:50;;;;;;;4.95;0.98;;;20.00;43.70;;;;;;5066984;28;20075;-68
2022/05/09 05:54:16;;;;;;;7.30;1.30;;;19.90;43.80;;;;;;5069961;28;20847;-69
2022/05/09 05:56:41;;;;;;;5.00;1.10;;;19.90;43.80;;;;;;5070601;28;20033;-66
2022/05/09 05:59:08;;;;;;;8.25;1.38;;;19.70;43.90;;;;;;5067932;28;20064;-70
2022/05/09 06:01:33;;;;;;;7.55;1.60;;;19.60;44.00;;;;;;5067967;28;20036;-64
2022/05/09 06:04:00;;;;;;;7.53;2.00;;;19.50;44.10;;;;;;5066638;28;20098;-71
2022/05/09 06:06:26;;;;;;;6.25;1.70;;;19.40;44.30;;;;;;5068822;28;20072;-73
2022/05/09 06:08:52;;;;;;;6.45;1.63;;;19.40;44.60;;;;;;5049543;28;20075;-72
2022/05/09 06:11:18;;;;;;;9.45;1.75;;;19.30;44.80;;;;;;5052495;28;20050;-72
2022/05/09 06:13:43;;;;;;;5.95;1.52;;;19.20;45.00;;;;;;5068848;28;20503;-73
2022/05/09 06:16:09;;;;;;;4.50;0.93;;;19.10;45.20;;;;;;5069725;28;20123;-68
2022/05/09 06:18:35;;;;;;;4.22;1.10;;;19.00;45.40;;;;;;5068833;28;20424;-72
2022/05/09 06:21:03;;;;;;;4.40;0.80;;;19.00;45.50;;;;;;5069916;28;20387;-68
2022/05/09 06:23:28;;;;;;;4.07;1.23;;;18.80;45.60;;;;;;5066412;28;20043;-71
2022/05/09 06:25:54;;;;;;;3.33;1.58;;;18.80;45.70;;;;;;5046910;28;21592;-64
2022/05/09 06:28:21;;;;;;;3.80;1.08;;;18.70;45.80;;;;;;5053777;28;20032;-67
2022/05/09 06:30:47;;;;;;;7.85;1.55;;;18.70;46.00;;;;;;5048830;28;20037;-71
2022/05/09 06:33:19;;;;;;;3.95;0.93;;;18.60;46.20;;;;;;5073142;28;20041;-70
2022/05/09 06:35:45;;;;;;;5.80;1.38;;;18.60;46.60;;;;;;5052651;28;20045;-71
2022/05/09 06:38:16;;;;;;;5.43;1.15;;;18.60;46.90;;;;;;5052620;28;20052;-71
2022/05/09 06:40:43;;;;;;;8.93;0.82;;;18.60;47.40;;;;;;5054157;28;20116;-71
2022/05/09 06:43:08;;;;;;;6.35;1.17;;;18.50;47.60;;;;;;5069523;28;20101;-72
2022/05/09 06:45:35;;;;;;;6.68;1.35;;;18.60;48.00;;;;;;5059624;28;20497;-62
2022/05/09 06:48:01;;;;;;;6.70;1.17;;;18.50;48.30;;;;;;5054630;28;20040;-67
2022/05/09 06:50:30;;;;;;;7.18;1.48;;;18.50;48.60;;;;;;5055910;28;20032;-70
2022/05/09 06:52:57;;;;;;;6.87;1.17;;;18.50;48.80;;;;;;5054770;28;20044;-71
2022/05/09 06:55:22;;;;;;;8.48;1.63;;;18.50;49.00;;;;;;5055539;28;20333;-70
2022/05/09 06:57:49;;;;;;;7.78;1.20;;;18.50;49.10;;;;;;5056733;28;20073;-69
2022/05/09 07:00:18;;;;;;;3.88;0.90;;;18.50;49.20;;;;;;5055539;28;20040;-63
2022/05/09 07:02:43;;;;;;;5.82;1.23;;;18.50;49.40;;;;;;5055650;28;20036;-71
2022/05/09 07:05:12;;;;;;;6.18;2.05;;;18.50;49.50;;;;;;5062785;28;20099;-62
2022/05/09 07:07:39;;;;;;;7.63;1.58;;;18.50;49.80;;;;;;5072218;28;20044;-71
2022/05/09 07:10:05;;;;;;;5.32;1.30;;;18.50;49.90;;;;;;5057639;28;20045;-72
2022/05/09 07:12:31;;;;;;;4.97;1.33;;;18.50;50.10;;;;;;5055228;28;20107;-71
2022/05/09 07:14:57;;;;;;;4.72;0.93;;;18.50;50.20;;;;;;5072597;28;20045;-70
2022/05/09 07:17:23;;;;;;;5.63;1.30;;;18.50;50.30;;;;;;5057761;28;20044;-70
2022/05/09 07:19:48;;;;;;;8.10;1.33;;;18.50;50.30;;;;;;5055235;28;20450;-71
2022/05/09 07:22:14;;;;;;;6.18;1.45;;;18.50;50.30;;;;;;5057788;28;20128;-70
2022/05/09 07:24:41;;;;;;;4.25;1.63;;;18.50;50.40;;;;;;5072512;28;20446;-71
2022/05/09 07:27:08;;;;;;;8.50;1.15;;;18.50;50.60;;;;;;5056428;28;20071;-71
2022/05/09 07:29:34;;;;;;;3.67;1.08;;;18.50;50.70;;;;;;5071658;28;20040;-64
2022/05/09 07:32:00;;;;;;;6.13;1.30;;;18.50;50.80;;;;;;5053716;28;20048;-66
2022/05/09 07:34:28;;;;;;;4.50;1.52;;;18.50;50.80;;;;;;5057257;28;20053;-73
2022/05/09 07:36:53;;;;;;;4.45;0.85;;;18.50;50.80;;;;;;5069276;28;20067;-74
2022/05/09 07:39:22;;;;;;;5.70;1.00;;;18.60;50.80;;;;;;5057531;28;20039;-65
2022/05/09 07:41:48;;;;;;;4.82;0.90;;;18.60;51.00;;;;;;5053490;28;20404;-63
2022/05/09 07:44:13;;;;;;;5.30;0.93;;;18.60;51.00;;;;;;5052332;28;20040;-68
2022/05/09 07:46:39;;;;;;;5.40;0.85;;;18.60;51.00;;;;;;5052159;28;20084;-66
2022/05/09 07:49:05;;;;;;;3.95;1.20;;;18.60;51.00;;;;;;5052247;28;20080;-72
2022/05/09 07:51:31;;;;;;;7.80;0.73;;;18.70;51.00;;;;;;5055867;28;20617;-69
2022/05/09 07:53:57;;;;;;;4.70;1.13;;;18.70;50.90;;;;;;5050494;28;20060;-71
2022/05/09 07:56:22;;;;;;;3.95;0.75;;;18.70;50.80;;;;;;5056658;28;20424;-65
2022/05/09 07:58:48;;;;;;;3.42;1.08;;;18.70;50.90;;;;;;5053014;28;20033;-72
2022/05/09 08:01:13;;;;;;;7.05;0.90;;;18.70;51.00;;;;;;5070015;28;20554;-72
2022/05/09 08:03:39;;;;;;;4.45;0.73;;;18.70;51.00;;;;;;5056515;28;20056;-73
2022/05/09 08:06:06;;;;;;;5.88;0.98;;;18.80;51.20;;;;;;5052958;28;20040;-71
2022/05/09 08:08:35;;;;;;;3.80;0.80;;;18.80;51.40;;;;;;5053133;28;20488;-66
2022/05/09 08:11:02;;;;;;;3.75;0.68;;;18.80;51.20;;;;;;5051230;28;20045;-68
2022/05/09 08:13:30;;;;;;;5.60;1.10;;;18.90;51.10;;;;;;5050384;28;20059;-65
2022/05/09 08:15:56;;;;;;;6.80;0.80;;;18.90;50.90;;;;;;5044212;28;20061;-65
2022/05/09 08:18:24;;;;;;;7.22;1.00;;;18.90;51.10;;;;;;5050434;28;20366;-71
2022/05/09 08:20:50;;;;;;;6.88;0.88;;;19.00;51.10;;;;;;5050108;28;20085;-65
2022/05/09 08:23:18;;;;;;;8.30;1.42;;;19.00;51.40;;;;;;5053948;28;21022;-70
2022/05/09 08:25:47;;;;;;;8.27;1.08;;;19.00;51.50;;;;;;5049278;28;20035;-71
2022/05/09 08:28:15;;;;;;;7.05;1.15;;;19.10;51.60;;;;;;5048929;28;20064;-71
2022/05/09 08:30:42;;;;;;;7.72;1.10;;;19.10;51.50;;;;;;5046230;28;20040;-72
2022/05/09 08:33:15;;;;;;;6.60;1.05;;;19.20;51.40;;;;;;5055346;28;20095;-69
2022/05/09 08:35:43;;;;;;;7.93;1.30;;;19.20;51.20;;;;;;5045913;28;20033;-72
2022/05/09 08:38:10;;;;;;;13.32;1.65;;;19.20;51.10;;;;;;5062283;28;20076;-69
2022/05/09 08:46:21;;;;;;;12.30;0.93;;;19.30;51.00;;;;;;5083057;27;20463;-70
2022/05/09 08:49:14;;;;;;;5.55;1.48;;;19.40;50.40;;;;;;5070204;28;20085;-65
2022/05/09 08:51:58;;;;;;;7.85;1.33;;;19.50;50.10;;;;;;5067324;28;20036;-66
2022/05/09 08:54:26;;;;;;;5.07;0.77;;;19.70;49.80;;;;;;5094167;28;20050;-68
2022/05/09 08:57:00;;;;;;;6.20;1.35;;;19.80;49.30;;;;;;5094508;28;20646;-73
2022/05/09 08:59:31;;;;;;;7.47;0.90;;;20.10;49.00;;;;;;5077893;28;20399;-71
2022/05/09 09:02:23;;;;;;;9.85;1.35;;;20.40;48.30;;;;;;5080383;28;20128;-70
2022/05/09 09:04:54;;;;;;;5.32;0.90;;;20.80;47.70;;;;;;5094263;28;20104;-64
2022/05/09 09:10:25;;;;;;;14.80;2.00;;;21.10;46.90;;;;;;5173785;27;20844;-74
2022/05/09 09:18:59;;;;;;;6.72;1.63;;;21.70;45.70;;;;;;5070257;27;20953;-72
2022/05/09 09:25:02;;;;;;;5.65;0.88;;;22.00;45.30;;;;;;5102851;27;20430;-73
2022/05/09 09:30:11;;;;;;;7.30;0.82;;;22.20;45.00;;;;;;5053120;28;21040;-74
2022/05/09 09:32:39;;;;;;;6.97;0.68;;;22.30;44.80;;;;;;5071794;28;20059;-74
2022/05/09 09:38:09;;;;;;;5.75;0.80;;;22.40;44.90;;;;;;5082186;27;20132;-76
2022/05/09 09:40:35;;;;;;;4.35;1.38;;;22.40;44.70;;;;;;5098326;28;20048;-73
2022/05/09 09:43:01;;;;;;;5.38;0.85;;;22.40;44.70;;;;;;5087320;28;20205;-65
2022/05/09 09:53:59;;;;;;;6.95;0.90;;;22.40;44.80;;;;;;5079701;27;20451;-70
2022/05/09 09:59:23;;;;;;;5.82;1.10;;;22.40;44.80;;;;;;5096597;27;21318;-70
2022/05/09 10:02:21;;;;;;;6.55;1.00;;;22.40;45.00;;;;;;5100983;28;20039;-75
2022/05/09 10:04:48;;;;;;;3.28;0.85;;;22.40;45.10;;;;;;5115923;27;20039;-75
2022/05/09 10:07:26;;;;;;;6.97;1.10;;;22.40;45.10;;;;;;5112699;27;20611;-74
2022/05/09 10:12:49;;;;;;;3.15;0.93;;;22.30;44.70;;;;;;5090876;27;20461;-74
2022/05/09 10:17:58;;;;;;;5.47;0.80;;;22.30;44.30;;;;;;5067339;27;20413;-71
2022/05/09 10:20:41;;;;;;;4.07;0.80;;;22.20;43.70;;;;;;5056256;28;20110;-71
2022/05/09 10:28:59;;;;;;;4.45;0.63;;;22.20;43.40;;;;;;5082545;27;20465;-71
2022/05/09 10:31:28;;;;;;;;;;;22.00;42.90;;;;;;5057869;28;20048;-69
2022/05/09 10:34:18;;;;;;;5.97;1.17;;;21.90;43.00;;;;;;5060615;28;19920;-67
2022/05/09 10:39:32;;;;;;;9.52;0.90;;;21.90;42.60;;;;;;5106635;27;20518;-69
2022/05/09 10:42:01;;;;;;;3.75;0.93;;;21.90;42.50;;;;;;5121406;27;20116;-70
2022/05/09 10:47:52;;;;;;;8.05;0.80;;;21.80;42.50;;;;;;5047735;27;20462;-71
2022/05/09 10:50:26;;;;;;;3.30;0.75;;;21.80;43.40;;;;;;5050816;28;20556;-74
2022/05/09 11:01:23;;;;;;;18.45;1.83;;;21.90;45.10;;;;;;5105542;27;20512;-73
2022/05/09 11:03:53;;;;;;;12.40;1.50;;;21.80;45.70;;;;;;5113365;27;20394;-74
2022/05/09 11:06:28;;;;;;;13.57;1.63;;;21.80;45.80;;;;;;5112807;28;20342;-69
2022/05/09 11:17:45;;;;;;;12.77;1.10;;;21.70;46.20;;;;;;5109211;27;1161575;-67
2022/05/09 11:23:09;;;;;;;9.48;1.30;;;21.70;46.10;;;;;;5078400;27;20473;-73
2022/05/09 11:40:13;;;;;;;8.27;0.68;;;21.70;45.60;;;;;;5105790;27;20398;-72
2022/05/09 11:53:36;;;;;;;7.97;0.80;;;21.60;44.80;;;;;;5105404;27;20489;-74
2022/05/09 11:56:05;;;;;;;6.47;1.00;;;21.50;44.90;;;;;;5093377;28;20047;-73
2022/05/09 11:58:37;;;;;;;8.68;0.80;;;21.60;44.90;;;;;;5089472;28;20094;-67
2022/05/09 12:01:03;;;;;;;4.78;0.63;;;21.60;45.30;;;;;;5088524;28;20059;-72
2022/05/09 12:03:51;;;;;;;6.15;0.70;;;21.60;44.30;;;;;;5088381;28;20538;-76
2022/05/09 12:06:38;;;;;;;4.20;0.70;;;21.60;44.00;;;;;;5096164;27;20075;-72
2022/05/09 12:09:09;;;;;;;9.95;1.05;;;21.60;44.10;;;;;;5075413;28;20717;-74
2022/05/09 12:11:46;;;;;;;10.23;0.90;;;21.60;44.20;;;;;;5082086;28;20035;-74
2022/05/09 12:14:42;;;;;;;7.30;0.98;;;21.60;44.30;;;;;;5101226;28;20177;-74
2022/05/09 12:17:33;;;;;;;5.78;0.80;;;21.60;44.40;;;;;;5106948;28;20040;-73
2022/05/09 12:19:58;;;;;;;6.80;1.35;;;21.60;44.50;;;;;;5087673;28;20062;-72
2022/05/09 12:22:49;;;;;;;5.40;1.00;;;21.60;44.60;;;;;;5084623;28;20079;-67
2022/05/09 12:41:56;;;;;;;5.45;0.73;;;21.60;45.00;;;;;;5078165;27;20407;-73
2022/05/09 12:44:27;;;;;;;5.60;0.88;;;21.70;45.60;;;;;;5065900;28;20702;-72
2022/05/09 12:46:56;;;;;;;6.82;0.80;;;21.70;45.60;;;;;;5064598;28;20036;-71
2022/05/09 12:49:26;;;;;;;3.97;0.60;;;21.70;45.60;;;;;;5041803;28;20032;-73
2022/05/09 12:51:56;;;;;;;2.25;0.52;;;21.70;45.40;;;;;;5046451;28;20079;-71
2022/05/09 12:54:28;;;;;;;5.37;0.70;;;21.70;45.30;;;;;;5053290;28;20396;-70
2022/05/09 12:56:59;;;;;;;3.53;0.90;;;21.70;45.20;;;;;;5052932;28;20313;-72
2022/05/09 12:59:27;;;;;;;3.08;0.60;;;21.70;45.10;;;;;;5054618;28;20043;-74
2022/05/09 13:01:59;;;;;;;7.00;0.50;;;21.60;45.10;;;;;;5049572;28;20056;-75
2022/05/09 13:04:29;;;;;;;4.68;0.60;;;21.60;45.10;;;;;;5053558;28;20043;-74
2022/05/09 13:06:57;;;;;;;;;;;21.60;45.10;;;;;;5073592;28;20594;-68
2022/05/09 13:09:25;;;;;;;5.93;0.60;;;21.60;45.10;;;;;;5050887;28;20086;-72
2022/05/09 13:11:57;;;;;;;3.10;0.55;;;21.50;45.10;;;;;;5077050;28;20173;-73
2022/05/09 13:17:04;;;;;;;2.05;0.35;;;21.60;45.20;;;;;;5074701;27;20421;-71
2022/05/09 13:19:31;;;;;;;5.47;0.93;;;21.60;45.00;;;;;;5057408;28;20138;-73
2022/05/09 13:21:58;;;;;;;3.67;0.63;;;21.70;44.30;;;;;;5072844;28;20523;-74
2022/05/09 13:24:31;;;;;;;4.82;0.60;;;21.80;43.50;;;;;;5068050;28;20456;-75
2022/05/09 13:26:58;;;;;;;;;;;21.90;42.90;;;;;;5069150;28;20036;-74
2022/05/09 13:29:29;;;;;;;1.90;0.50;;;21.90;42.80;;;;;;5051742;28;19916;-73
2022/05/09 13:31:58;;;;;;;2.22;0.60;;;22.00;43.20;;;;;;5068973;28;20056;-75
2022/05/09 13:34:40;;;;;;;4.75;0.43;;;22.10;41.90;;;;;;5067763;28;20040;-75
2022/05/09 13:37:24;;;;;;;4.45;0.80;;;22.10;41.70;;;;;;5067367;28;20040;-75
2022/05/09 13:39:51;;;;;;;2.15;0.40;;;22.20;41.40;;;;;;5066480;28;20484;-72
2022/05/09 13:42:37;;;;;;;2.45;0.40;;;22.20;41.40;;;;;;5095974;28;20048;-74
2022/05/09 13:45:11;;;;;;;2.00;0.30;;;22.20;41.50;;;;;;5073937;28;20052;-73
2022/05/09 13:47:49;;;;;;;1.42;0.77;;;22.20;41.30;;;;;;5078717;28;20048;-74
2022/05/09 13:50:15;;;;;;;2.05;0.40;;;22.30;41.30;;;;;;5059326;28;20056;-73
2022/05/09 13:52:46;;;;;;;1.67;0.30;;;22.30;41.20;;;;;;5065657;28;20490;-73
2022/05/09 13:55:24;;;;;;;1.75;0.43;;;22.30;41.00;;;;;;5071405;28;20388;-73
2022/05/09 13:57:51;;;;;;;2.45;0.52;;;22.30;40.80;;;;;;5066499;28;20036;-73
2022/05/09 14:00:22;;;;;;;1.88;0.50;;;22.30;40.80;;;;;;5061996;28;20095;-73
2022/05/09 14:02:52;;;;;;;2.78;0.45;;;22.30;40.70;;;;;;5062926;28;20118;-73
2022/05/09 14:05:23;;;;;;;0.98;0.30;;;22.40;40.70;;;;;;5061235;28;20041;-73
2022/05/09 14:07:50;;;;;;;2.08;0.30;;;22.40;40.60;;;;;;5061362;28;20053;-73
2022/05/09 14:10:25;;;;;;;1.15;0.20;;;22.40;40.40;;;;;;5068599;28;20137;-73
2022/05/09 14:12:52;;;;;;;2.80;0.38;;;22.50;40.30;;;;;;5082329;28;20093;-74
2022/05/09 14:15:21;;;;;;;2.65;0.73;;;22.50;40.30;;;;;;5080904;28;20052;-74
2022/05/09 14:20:37;;;;;;;2.72;0.30;;;22.50;40.20;;;;;;5100538;27;20186;-73
2022/05/09 14:23:05;;;;;;;4.22;0.30;;;22.50;39.90;;;;;;5075333;28;20563;-75
2022/05/09 14:29:51;;;;;;;2.45;0.30;;;22.50;39.60;;;;;;5073581;28;20062;-72
2022/05/09 14:31:40;;;;;;;5.13;0.50;;;22.50;39.50;;;;;;5078115;28;20048;-72
2022/05/09 14:37:19;;;;;;;6.00;0.40;;;22.50;39.80;;;;;;5084760;27;20408;-71
2022/05/09 14:39:55;;;;;;;3.00;0.50;;;22.40;40.00;;;;;;5059526;28;20114;-72
2022/05/09 14:42:21;;;;;;;2.88;0.52;;;22.30;40.20;;;;;;5044741;28;20045;-72
2022/05/09 14:45:10;;;;;;;1.17;0.20;;;22.30;40.50;;;;;;5065093;28;20070;-72
2022/05/09 14:47:55;;;;;;;3.03;0.55;;;22.20;40.60;;;;;;5061346;28;20040;-72
2022/05/09 14:50:30;;;;;;;1.80;0.30;;;22.20;40.90;;;;;;5079126;28;20446;-74
2022/05/09 14:53:18;;;;;;;4.50;0.40;;;22.10;41.00;;;;;;5045896;28;20110;-73
2022/05/09 14:58:42;;;;;;;3.80;0.50;;;22.00;41.20;;;;;;5079254;28;20048;-70
2022/05/09 15:03:52;;;;;;;0.80;0.30;;;21.90;41.30;;;;;;5127000;27;20793;-72
2022/05/09 15:06:21;;;;;;;1.15;0.20;;;21.80;41.50;;;;;;5126924;28;20089;-71
2022/05/09 15:08:47;;;;;;;2.92;0.38;;;21.80;41.60;;;;;;5127965;27;20390;-72
2022/05/09 15:14:01;;;;;;;2.53;0.40;;;21.80;41.70;;;;;;5128151;27;20423;-70
2022/05/09 15:16:29;;;;;;;1.42;0.38;;;21.80;41.80;;;;;;5127211;28;20144;-72
2022/05/09 15:18:54;;;;;;;3.05;0.57;;;21.70;41.90;;;;;;5127036;28;20039;-70
2022/05/09 15:21:20;;;;;;;1.45;0.30;;;21.80;42.00;;;;;;5128302;28;20143;-72
2022/05/09 15:23:48;;;;;;;1.05;0.30;;;21.70;42.00;;;;;;5127090;27;20073;-72
2022/05/09 15:26:20;;;;;;;3.72;0.35;;;21.70;42.00;;;;;;5126892;28;20493;-72
2022/05/09 15:28:50;;;;;;;1.15;0.30;;;21.70;42.10;;;;;;5126698;28;20039;-71
2022/05/09 15:31:21;;;;;;;1.80;0.20;;;21.70;42.10;;;;;;5127088;28;20028;-71